Brantford, North Dakota
Current Conditions -  °F | °C
As of 3:15 PM on Thursday 20 Nov 2014 (Local Time) from K46D Reporting Station
Clear Clear  
Wind Chill:   Ceiling: Unl
Heat Index: 19°   Visibility: 10mi
Dew Point:   Wind: 9mph
Humidity: 63%   Direction: 200°SSW
Pressure: 30.06"   Gusts: NA
Location:  47.6736°N, 98.8981°W
Report Text: K46D 202115Z AUTO 20008KT 10SM CLR M07/M13 A3006 RMK AO2
Loading
Personal Weather Stations






























Interactive Weather Map New forecast layout! Learn more

10-Day Weather Forecast

Advertisements
Track Severe Weather on mobile